createdAt,value
2019-01-24T00:01:05.282Z,98749.75
2019-01-24T00:03:33.451Z,98747.17
2019-01-24T00:06:01.448Z,98750.56
2019-01-24T00:08:29.501Z,98758.30
2019-01-24T00:10:57.515Z,98757.48
2019-01-24T00:13:25.531Z,98765.56
2019-01-24T00:15:53.553Z,98761.36
2019-01-24T00:18:21.718Z,98772.81
2019-01-24T00:20:49.713Z,98768.28
2019-01-24T00:23:17.752Z,98768.43
2019-01-24T00:25:45.755Z,98780.38
2019-01-24T00:28:14.029Z,98778.38
2019-01-24T00:30:42.056Z,98784.83
2019-01-24T00:33:10.324Z,98795.15
2019-01-24T00:35:38.351Z,98787.55
2019-01-24T00:38:06.447Z,98790.95
2019-01-24T00:40:35.072Z,98798.83
2019-01-24T00:43:03.145Z,98801.41
2019-01-24T00:45:31.321Z,98807.86
2019-01-24T00:47:59.375Z,98815.12
2019-01-24T00:50:27.397Z,98812.20
2019-01-24T00:52:55.451Z,98812.34
2019-01-24T00:55:23.480Z,98809.88
2019-01-24T00:57:51.811Z,98808.73
2019-01-24T01:00:22.817Z,98821.48
2019-01-24T01:02:51.115Z,98824.06
2019-01-24T01:05:20.691Z,98822.11
2019-01-24T01:07:49.244Z,98825.98
2019-01-24T01:10:18.003Z,98834.52
2019-01-24T01:12:47.239Z,98839.35
2019-01-24T01:15:17.853Z,98843.22
2019-01-24T01:17:46.893Z,98844.17
2019-01-24T01:20:20.836Z,98848.38
2019-01-24T01:22:49.294Z,98848.85
2019-01-24T01:25:18.253Z,98854.02
2019-01-24T01:27:46.902Z,98857.55
2019-01-24T01:30:20.980Z,98858.36
2019-01-24T01:32:49.684Z,98860.60
2019-01-24T01:35:18.137Z,98866.71
2019-01-24T01:37:46.688Z,98871.06
2019-01-24T01:40:16.764Z,98882.30
2019-01-24T01:42:44.989Z,98887.59
2019-01-24T01:45:17.890Z,98890.98
2019-01-24T01:47:46.370Z,98892.28
2019-01-24T01:50:17.800Z,98896.95
2019-01-24T01:52:46.279Z,98905.17
2019-01-24T01:55:16.170Z,98902.11
2019-01-24T01:57:44.335Z,98909.85
2019-01-24T02:00:22.181Z,98910.33
2019-01-24T02:02:50.323Z,98912.91
2019-01-24T02:05:18.822Z,98913.52
2019-01-24T02:07:47.842Z,98909.66
2019-01-24T02:10:19.462Z,98912.38
2019-01-24T02:12:48.123Z,98915.29
2019-01-24T02:15:18.438Z,98917.53
2019-01-24T02:17:46.573Z,98918.48
2019-01-24T02:20:20.587Z,98919.41
2019-01-24T02:22:49.039Z,98926.81
2019-01-24T02:25:18.212Z,98923.56
2019-01-24T02:27:46.190Z,98925.80
2019-01-24T02:30:26.720Z,98921.27
2019-01-24T02:32:55.016Z,98923.95
2019-01-24T02:35:23.032Z,98930.88
2019-01-24T02:37:51.052Z,98937.66
2019-01-24T02:40:19.369Z,98936.50
2019-01-24T02:42:47.341Z,98936.17
2019-01-24T02:45:19.801Z,98934.87
2019-01-24T02:47:48.222Z,98944.38
2019-01-24T02:50:18.469Z,98939.70
2019-01-24T02:52:47.581Z,98941.94
2019-01-24T02:55:17.198Z,98950.48
2019-01-24T02:57:45.280Z,98953.54
2019-01-24T03:00:19.924Z,98950.06
2019-01-24T03:02:48.033Z,98958.47
2019-01-24T03:05:18.982Z,98953.93
2019-01-24T03:07:47.678Z,98962.62
2019-01-24T03:10:15.686Z,98965.67
2019-01-24T03:12:46.481Z,98964.37
2019-01-24T03:15:16.751Z,98963.23
2019-01-24T03:17:44.743Z,98967.09
2019-01-24T03:20:13.267Z,98971.07
2019-01-24T03:22:41.284Z,98963.14
2019-01-24T03:25:10.911Z,98971.48
2019-01-24T03:27:39.212Z,98974.54
2019-01-24T03:30:14.307Z,98971.15
2019-01-24T03:32:42.305Z,98973.16
2019-01-24T03:35:17.725Z,98980.08
2019-01-24T03:37:45.734Z,98980.69
2019-01-24T03:40:14.379Z,98972.73
2019-01-24T03:42:42.906Z,98974.30
2019-01-24T03:45:13.466Z,98983.89
2019-01-24T03:47:41.905Z,98981.31
2019-01-24T03:50:14.045Z,98983.55
2019-01-24T03:52:43.745Z,98985.80
2019-01-24T03:55:15.802Z,98988.84
2019-01-24T03:57:43.778Z,98995.42
2019-01-24T04:00:16.719Z,99002.95
2019-01-24T04:02:44.557Z,99002.11
2019-01-24T04:05:13.435Z,99005.16
2019-01-24T04:07:41.411Z,99009.02
2019-01-24T04:10:14.301Z,99010.92
2019-01-24T04:12:42.334Z,99013.02
2019-01-24T04:15:13.522Z,99013.97
2019-01-24T04:17:41.578Z,99014.78
2019-01-24T04:20:11.298Z,99022.38
2019-01-24T04:22:39.289Z,99023.80
2019-01-24T04:25:07.752Z,99030.58
2019-01-24T04:27:35.810Z,99029.09
2019-01-24T04:30:07.330Z,99029.91
2019-01-24T04:32:35.335Z,99030.24
2019-01-24T04:35:04.351Z,99028.14
2019-01-24T04:37:32.329Z,99020.88
2019-01-24T04:40:00.746Z,99028.27
2019-01-24T04:42:28.767Z,99035.19
2019-01-24T04:44:56.764Z,99036.00
2019-01-24T04:47:24.790Z,99036.81
2019-01-24T04:49:52.908Z,99037.63
2019-01-24T04:52:20.935Z,99035.27
2019-01-24T04:54:48.896Z,99033.02
2019-01-24T04:57:17.017Z,99039.83
2019-01-24T04:59:45.000Z,99042.88
2019-01-24T05:02:13.166Z,99045.46
2019-01-24T05:04:41.870Z,99049.77
2019-01-24T05:07:10.194Z,99048.85
2019-01-24T05:09:38.188Z,99051.91
2019-01-24T05:12:07.267Z,99048.37
2019-01-24T05:14:35.268Z,99053.53
2019-01-24T05:17:03.649Z,99054.81
2019-01-24T05:19:31.642Z,99060.31
2019-01-24T05:21:59.811Z,99061.13
2019-01-24T05:24:27.963Z,99068.86
2019-01-24T05:26:55.972Z,99072.11
2019-01-24T05:29:23.970Z,99071.77
2019-01-24T05:31:51.963Z,99080.66
2019-01-24T05:34:20.255Z,99077.13
2019-01-24T05:36:48.274Z,99081.80
2019-01-24T05:39:16.271Z,99084.39
2019-01-24T05:41:44.279Z,99080.08
2019-01-24T05:44:12.934Z,99082.99
2019-01-24T05:46:40.929Z,99093.16
2019-01-24T05:49:08.906Z,99093.98
2019-01-24T05:51:37.032Z,99104.28
2019-01-24T05:54:05.077Z,99105.91
2019-01-24T05:56:33.190Z,99109.78
2019-01-24T05:59:02.643Z,99111.07
2019-01-24T06:01:31.280Z,99119.75
2019-01-24T06:03:59.277Z,99116.36
2019-01-24T06:06:27.278Z,99121.52
2019-01-24T06:08:55.154Z,99131.81
2019-01-24T06:11:23.226Z,99127.14
2019-01-24T06:13:51.211Z,99128.91
2019-01-24T06:16:19.255Z,99125.03
2019-01-24T06:18:47.283Z,99131.48
2019-01-24T06:21:15.280Z,99138.73
2019-01-24T06:23:43.277Z,99138.73
2019-01-24T06:26:12.807Z,99138.27
2019-01-24T06:28:40.670Z,99138.27
2019-01-24T06:31:08.626Z,99149.25
2019-01-24T06:33:36.871Z,99145.86
2019-01-24T06:36:04.866Z,99152.17
2019-01-24T06:38:32.858Z,99156.03
2019-01-24T06:41:00.845Z,99156.41
2019-01-24T06:43:28.900Z,99156.84
2019-01-24T06:45:56.911Z,99154.17
2019-01-24T06:48:24.930Z,99158.51
2019-01-24T06:50:52.912Z,99164.95
2019-01-24T06:53:20.978Z,99165.87
2019-01-24T06:55:49.026Z,99173.16
2019-01-24T06:58:17.024Z,99170.20
2019-01-24T07:00:45.296Z,99175.02
2019-01-24T07:03:13.441Z,99173.86
2019-01-24T07:05:41.432Z,99181.12
2019-01-24T07:08:09.408Z,99181.25
2019-01-24T07:10:37.432Z,99179.97
2019-01-24T07:13:05.408Z,99185.25
2019-01-24T07:15:33.654Z,99195.90
2019-01-24T07:18:01.725Z,99198.48
2019-01-24T07:20:29.916Z,99202.55
2019-01-24T07:22:57.961Z,99206.89
2019-01-24T07:25:27.741Z,99208.18
2019-01-24T07:27:55.765Z,99213.81
2019-01-24T07:30:23.782Z,99222.02
2019-01-24T07:32:51.979Z,99228.93
2019-01-24T07:35:19.981Z,99237.13
2019-01-24T07:37:48.082Z,99242.28
2019-01-24T07:40:17.058Z,99242.76
2019-01-24T07:42:46.830Z,99250.96
2019-01-24T07:45:18.740Z,99257.03
2019-01-24T07:47:46.742Z,99252.72
2019-01-24T07:50:15.459Z,99260.89
2019-01-24T07:52:43.525Z,99260.89
2019-01-24T07:55:12.048Z,99268.05
2019-01-24T07:57:41.947Z,99267.11
2019-01-24T08:00:15.649Z,99263.59
2019-01-24T08:02:46.347Z,99263.45
2019-01-24T08:05:14.847Z,99268.95
2019-01-24T08:07:42.737Z,99266.84
2019-01-24T08:10:13.889Z,99277.06
2019-01-24T08:12:41.930Z,99281.73
2019-01-24T08:15:12.980Z,99279.51
2019-01-24T08:17:41.333Z,99286.77
2019-01-24T08:20:17.440Z,99284.06
2019-01-24T08:22:46.608Z,99294.23
2019-01-24T08:25:15.107Z,99288.61
2019-01-24T08:27:43.169Z,99282.06
2019-01-24T08:30:20.164Z,99284.04
2019-01-24T08:32:48.319Z,99282.28
2019-01-24T08:35:16.361Z,99290.83
2019-01-24T08:37:45.993Z,99289.75
2019-01-24T08:40:15.183Z,99290.94
2019-01-24T08:42:43.231Z,99288.36
2019-01-24T08:45:11.681Z,99291.15
2019-01-24T08:47:39.778Z,99294.88
2019-01-24T08:50:12.867Z,99299.94
2019-01-24T08:52:41.942Z,99299.00
2019-01-24T08:55:24.018Z,99300.16
2019-01-24T08:57:53.901Z,99304.36
2019-01-24T09:00:21.987Z,99304.12
2019-01-24T09:02:50.368Z,99308.81
2019-01-24T09:05:18.910Z,99313.36
2019-01-24T09:07:47.019Z,99312.08
2019-01-24T09:10:19.224Z,99317.91
2019-01-24T09:12:47.275Z,99320.36
2019-01-24T09:15:15.333Z,99319.92
2019-01-24T09:17:43.312Z,99321.55
2019-01-24T09:20:14.717Z,99327.39
2019-01-24T09:22:42.724Z,99326.31
2019-01-24T09:25:11.056Z,99332.53
2019-01-24T09:27:39.050Z,99333.34
2019-01-24T09:30:11.054Z,99335.45
2019-01-24T09:32:39.043Z,99337.56
2019-01-24T09:35:08.381Z,99335.32
2019-01-24T09:37:36.415Z,99343.88
2019-01-24T09:40:06.321Z,99347.61
2019-01-24T09:42:34.318Z,99351.38
2019-01-24T09:45:04.148Z,99345.51
2019-01-24T09:47:32.150Z,99355.72
2019-01-24T09:50:00.232Z,99357.93
2019-01-24T09:52:28.224Z,99363.09
2019-01-24T09:54:56.242Z,99366.04
2019-01-24T09:57:24.332Z,99372.59
2019-01-24T09:59:52.323Z,99377.75
2019-01-24T10:02:20.292Z,99374.83
2019-01-24T10:04:48.319Z,99373.88
2019-01-24T10:07:16.279Z,99378.94
2019-01-24T10:09:44.294Z,99382.67
2019-01-24T10:12:13.670Z,99381.25
2019-01-24T10:14:41.734Z,99385.47
2019-01-24T10:17:09.726Z,99393.92
2019-01-24T10:19:38.473Z,99393.79
2019-01-24T10:22:06.562Z,99399.64
2019-01-24T10:24:34.584Z,99407.84
2019-01-24T10:27:02.618Z,99404.92
2019-01-24T10:29:30.621Z,99410.90
2019-01-24T10:31:58.626Z,99419.45
2019-01-24T10:34:26.787Z,99422.37
2019-01-24T10:36:54.827Z,99423.20
2019-01-24T10:39:22.878Z,99424.83
2019-01-24T10:41:50.897Z,99421.67
2019-01-24T10:44:18.984Z,99424.94
2019-01-24T10:46:47.640Z,99424.81
2019-01-24T10:49:17.606Z,99425.87
2019-01-24T10:51:48.844Z,99427.50
2019-01-24T10:54:18.252Z,99426.55
2019-01-24T10:56:46.238Z,99432.53
2019-01-24T10:59:14.638Z,99427.23
2019-01-24T11:01:42.636Z,99427.38
2019-01-24T11:04:11.030Z,99434.30
2019-01-24T11:06:39.012Z,99435.59
2019-01-24T11:09:08.721Z,99438.51
2019-01-24T11:11:36.927Z,99439.80
2019-01-24T11:14:05.109Z,99438.51
2019-01-24T11:16:33.420Z,99437.22
2019-01-24T11:19:01.448Z,99437.56
2019-01-24T11:21:29.550Z,99436.61
2019-01-24T11:23:57.646Z,99434.41
2019-01-24T11:26:25.679Z,99432.17
2019-01-24T11:28:53.668Z,99431.70
2019-01-24T11:31:21.989Z,99431.56
2019-01-24T11:33:50.022Z,99429.33
2019-01-24T11:36:18.083Z,99433.88
2019-01-24T11:38:46.145Z,99433.06
2019-01-24T11:41:14.323Z,99436.84
2019-01-24T11:43:42.389Z,99431.67
2019-01-24T11:46:10.730Z,99434.70
2019-01-24T11:48:39.353Z,99434.02
2019-01-24T11:51:07.528Z,99434.14
2019-01-24T11:53:35.696Z,99439.78
2019-01-24T11:56:03.986Z,99436.25
2019-01-24T11:58:31.968Z,99433.80
2019-01-24T12:00:59.995Z,99433.80
2019-01-24T12:03:29.086Z,99428.77
2019-01-24T12:05:58.783Z,99424.77
2019-01-24T12:08:27.956Z,99431.44
2019-01-24T12:10:57.161Z,99428.98
2019-01-24T12:13:26.812Z,99429.45
2019-01-24T12:15:56.860Z,99425.93
2019-01-24T12:18:26.729Z,99419.00
2019-01-24T12:20:54.925Z,99422.41
2019-01-24T12:23:23.127Z,99419.27
2019-01-24T12:25:51.252Z,99428.66
2019-01-24T12:28:19.354Z,99428.20
2019-01-24T12:30:47.382Z,99426.70
2019-01-24T12:33:15.384Z,99420.02
2019-01-24T12:35:43.517Z,99425.55
2019-01-24T12:38:12.550Z,99415.91
2019-01-24T12:40:40.947Z,99416.46
2019-01-24T12:43:09.189Z,99409.09
2019-01-24T12:45:37.379Z,99410.12
2019-01-24T12:48:06.880Z,99415.16
2019-01-24T12:50:35.080Z,99411.18
2019-01-24T12:53:03.790Z,99414.58
2019-01-24T12:55:31.750Z,99414.20
2019-01-24T12:57:59.784Z,99420.90
2019-01-24T13:00:37.349Z,99424.50
2019-01-24T13:03:06.434Z,99425.22
2019-01-24T13:05:34.471Z,99431.20
2019-01-24T13:08:02.513Z,99430.73
2019-01-24T13:10:30.754Z,99431.28
2019-01-24T13:12:58.763Z,99431.86
2019-01-24T13:15:29.490Z,99436.42
2019-01-24T13:17:57.495Z,99439.20
2019-01-24T13:20:25.557Z,99435.58
2019-01-24T13:22:53.659Z,99438.98
2019-01-24T13:25:30.352Z,99442.72
2019-01-24T13:27:58.448Z,99442.11
2019-01-24T13:30:29.159Z,99446.35
2019-01-24T13:32:57.357Z,99446.22
2019-01-24T13:35:25.535Z,99443.64
2019-01-24T13:37:53.554Z,99440.81
2019-01-24T13:40:25.142Z,99443.40
2019-01-24T13:42:54.241Z,99452.44
2019-01-24T13:45:25.676Z,99450.57
2019-01-24T13:47:53.851Z,99459.00
2019-01-24T13:50:21.876Z,99458.66
2019-01-24T13:52:49.924Z,99461.03
2019-01-24T13:55:17.963Z,99459.02
2019-01-24T13:57:45.928Z,99458.89
2019-01-24T14:00:25.187Z,99463.00
2019-01-24T14:03:16.299Z,99471.64
2019-01-24T14:05:44.324Z,99472.02
2019-01-24T14:08:12.291Z,99474.83
2019-01-24T14:10:40.349Z,99483.52
2019-01-24T14:13:08.334Z,99483.41
2019-01-24T14:15:36.412Z,99483.80
2019-01-24T14:18:05.557Z,99488.73
2019-01-24T14:20:33.738Z,99490.15
2019-01-24T14:23:01.818Z,99493.89
2019-01-24T14:25:33.780Z,99493.42
2019-01-24T14:28:01.789Z,99505.41
2019-01-24T14:30:29.802Z,99507.61
2019-01-24T14:32:57.815Z,99507.40
2019-01-24T14:35:26.059Z,99507.28
2019-01-24T14:37:54.477Z,99518.21
2019-01-24T14:40:23.003Z,99523.25
2019-01-24T14:42:51.037Z,99526.55
2019-01-24T14:45:21.818Z,99521.25
2019-01-24T14:47:49.847Z,99521.59
2019-01-24T14:50:22.856Z,99523.63
2019-01-24T14:52:52.309Z,99523.72
2019-01-24T14:55:20.689Z,99521.74
2019-01-24T14:57:49.129Z,99521.05
2019-01-24T15:00:29.782Z,99515.55
2019-01-24T15:02:58.040Z,99511.43
2019-01-24T15:05:26.203Z,99508.52
2019-01-24T15:07:54.187Z,99512.99
2019-01-24T15:10:23.310Z,99514.16
2019-01-24T15:12:51.426Z,99519.92
2019-01-24T15:15:20.095Z,99521.00
2019-01-24T15:17:48.136Z,99524.97
2019-01-24T15:20:18.721Z,99521.70
2019-01-24T15:22:46.949Z,99525.44
2019-01-24T15:25:14.972Z,99520.87
2019-01-24T15:27:44.508Z,99529.64
2019-01-24T15:30:18.011Z,99529.29
2019-01-24T15:32:45.995Z,99535.95
2019-01-24T15:35:14.382Z,99533.38
2019-01-24T15:37:42.546Z,99542.41
2019-01-24T15:40:18.316Z,99544.17
2019-01-24T15:42:46.427Z,99542.06
2019-01-24T15:45:15.129Z,99541.38
2019-01-24T15:47:43.428Z,99548.43
2019-01-24T15:50:13.979Z,99550.63
2019-01-24T15:52:43.361Z,99553.69
2019-01-24T15:55:11.946Z,99556.27
2019-01-24T15:57:40.004Z,99553.00
2019-01-24T16:00:22.371Z,99559.92
2019-01-24T16:02:50.553Z,99567.44
2019-01-24T16:05:18.901Z,99566.50
2019-01-24T16:07:47.411Z,99574.11
2019-01-24T16:10:19.266Z,99571.78
2019-01-24T16:12:47.350Z,99577.55
2019-01-24T16:15:22.675Z,99578.58
2019-01-24T16:17:52.217Z,99578.96
2019-01-24T16:20:22.301Z,99582.23
2019-01-24T16:22:50.300Z,99586.57
2019-01-24T16:25:18.763Z,99584.94
2019-01-24T16:27:46.810Z,99588.20
2019-01-24T16:30:20.256Z,99589.37
2019-01-24T16:32:48.450Z,99586.31
2019-01-24T16:35:17.500Z,99591.48
2019-01-24T16:37:45.687Z,99592.42
2019-01-24T16:40:16.852Z,99598.17
2019-01-24T16:42:46.295Z,99596.66
2019-01-24T16:45:18.805Z,99610.38
2019-01-24T16:47:47.232Z,99609.91
2019-01-24T16:50:17.933Z,99613.99
2019-01-24T16:52:46.792Z,99620.66
2019-01-24T16:55:16.209Z,99618.34
2019-01-24T16:57:44.850Z,99627.12
2019-01-24T17:00:30.357Z,99629.23
2019-01-24T17:02:58.421Z,99636.88
2019-01-24T17:05:26.693Z,99642.84
2019-01-24T17:07:54.879Z,99645.77
2019-01-24T17:10:22.977Z,99648.36
2019-01-24T17:12:51.080Z,99646.72
2019-01-24T17:15:19.610Z,99653.98
2019-01-24T17:17:47.769Z,99655.15
2019-01-24T17:20:20.075Z,99663.36
2019-01-24T17:22:48.563Z,99663.70
2019-01-24T17:25:17.689Z,99668.39
2019-01-24T17:27:46.330Z,99674.02
2019-01-24T17:30:20.909Z,99672.52
2019-01-24T17:32:49.399Z,99678.36
2019-01-24T17:35:17.488Z,99684.58
2019-01-24T17:37:45.861Z,99684.23
2019-01-24T17:40:21.167Z,99692.44
2019-01-24T17:42:50.441Z,99698.51
2019-01-24T17:45:19.209Z,99701.68
2019-01-24T17:47:47.378Z,99700.52
2019-01-24T17:50:17.935Z,99701.92
2019-01-24T17:52:46.745Z,99703.22
2019-01-24T17:55:22.013Z,99707.08
2019-01-24T17:57:50.116Z,99714.47
2019-01-24T18:00:20.469Z,99705.45
2019-01-24T18:02:50.507Z,99708.38
2019-01-24T18:05:19.740Z,99706.73
2019-01-24T18:07:48.204Z,99714.82
2019-01-24T20:29:04.846Z,99840.95
2019-01-24T20:31:51.150Z,99843.89
2019-01-24T20:34:21.079Z,99849.71
2019-01-24T20:36:50.531Z,99848.97
2019-01-24T20:39:19.777Z,99850.14
2019-01-24T20:41:48.426Z,99849.71
2019-01-24T20:44:16.783Z,99854.39
2019-01-24T20:46:46.510Z,99856.16
2019-01-24T20:49:14.612Z,99856.16
2019-01-24T20:51:42.799Z,99848.42
2019-01-24T20:54:11.376Z,99857.80
2019-01-24T20:56:40.725Z,99859.55
2019-01-24T20:59:08.842Z,99864.32
2019-01-24T21:01:38.355Z,99868.30
2019-01-24T21:04:08.204Z,99861.63
2019-01-24T21:06:36.806Z,99864.31
2019-01-24T21:09:14.510Z,99866.89
2019-01-24T21:11:38.468Z,99870.30
2019-01-24T21:14:13.020Z,99872.29
2019-01-24T21:16:41.965Z,99871.35
2019-01-24T21:19:10.319Z,99874.08
2019-01-24T21:21:38.720Z,99880.77
2019-01-24T21:24:07.077Z,99889.31
2019-01-24T21:26:35.159Z,99885.92
2019-01-24T21:29:03.235Z,99888.14
2019-01-24T21:31:31.320Z,99888.72
2019-01-24T21:33:59.442Z,99892.59
2019-01-24T21:36:27.516Z,99891.30
2019-01-24T21:38:55.981Z,99890.37
2019-01-24T21:41:24.014Z,99891.89
2019-01-24T21:43:52.127Z,99890.48
2019-01-24T21:46:21.437Z,99894.27
2019-01-24T21:48:49.549Z,99894.51
2019-01-24T21:51:17.602Z,99889.35
2019-01-24T21:53:45.700Z,99889.00
2019-01-24T21:56:13.765Z,99893.22
2019-01-24T21:58:41.973Z,99889.23
2019-01-24T22:01:10.008Z,99899.34
2019-01-24T22:03:38.114Z,99893.38
2019-01-24T22:06:06.257Z,99899.44
2019-01-24T22:08:34.474Z,99900.48
2019-01-24T22:11:03.742Z,99895.80
2019-01-24T22:13:31.960Z,99890.29
2019-01-24T22:16:00.000Z,99893.34
2019-01-24T22:18:28.371Z,99891.58
2019-01-24T22:20:56.585Z,99895.80
2019-01-24T22:23:24.653Z,99895.80
2019-01-24T22:25:52.726Z,99898.38
2019-01-24T22:28:21.540Z,99894.63
2019-01-24T22:30:53.164Z,99897.20
2019-01-24T22:33:21.269Z,99898.49
2019-01-24T22:35:49.592Z,99903.65
2019-01-24T22:38:17.910Z,99912.31
2019-01-24T22:40:49.731Z,99910.67
2019-01-24T22:43:17.819Z,99909.12
2019-01-24T22:45:45.875Z,99914.86
2019-01-24T22:48:13.965Z,99916.14
2019-01-24T22:50:42.028Z,99922.59
2019-01-24T22:53:10.215Z,99919.66
2019-01-24T22:55:39.379Z,99920.01
2019-01-24T22:58:08.918Z,99917.91
2019-01-24T23:00:50.245Z,99924.34
2019-01-24T23:03:30.488Z,99921.77
2019-01-24T23:05:58.526Z,99918.84
2019-01-24T23:08:27.702Z,99922.70
2019-01-24T23:10:56.967Z,99922.70
2019-01-24T23:13:25.069Z,99923.17
2019-01-24T23:15:53.138Z,99922.44
2019-01-24T23:18:22.146Z,99924.66
2019-01-24T23:20:50.208Z,99927.23
2019-01-24T23:23:18.597Z,99927.59
2019-01-24T23:25:46.918Z,99919.03
2019-01-24T23:28:15.068Z,99917.28
2019-01-24T23:30:43.107Z,99926.88
2019-01-24T23:33:12.910Z,99925.59
2019-01-24T23:35:41.288Z,99926.38
2019-01-24T23:38:09.421Z,99929.28
2019-01-24T23:40:37.501Z,99926.75
2019-01-24T23:43:05.664Z,99925.44
2019-01-24T23:45:33.747Z,99922.23
2019-01-24T23:48:01.815Z,99917.61
2019-01-24T23:50:29.867Z,99921.66
2019-01-24T23:52:57.992Z,99921.02
2019-01-24T23:55:26.077Z,99922.61
2019-01-24T23:57:54.208Z,99918.50
